createdAt,value
2023-09-29T00:00:31.086Z,3.80
2023-09-29T00:02:59.853Z,4.13
2023-09-29T00:05:28.605Z,3.65
2023-09-29T00:07:59.503Z,4.35
2023-09-29T00:10:26.911Z,3.90
2023-09-29T00:12:54.277Z,3.80
2023-09-29T00:15:23.481Z,4.10
2023-09-29T00:17:50.789Z,3.55
2023-09-29T00:20:25.242Z,3.67
2023-09-29T00:22:57.895Z,3.55
2023-09-29T00:25:25.970Z,3.90
2023-09-29T00:27:54.502Z,3.90
2023-09-29T00:30:22.155Z,3.78
2023-09-29T00:32:54.365Z,3.42
2023-09-29T00:35:26.487Z,3.53
2023-09-29T00:37:58.365Z,3.53
2023-09-29T00:40:25.539Z,3.60
2023-09-29T00:42:54.188Z,3.40
2023-09-29T00:45:25.244Z,3.80
2023-09-29T00:48:07.660Z,3.67
2023-09-29T00:50:35.938Z,4.25
2023-09-29T00:53:13.221Z,3.95
2023-09-29T00:55:44.015Z,3.92
2023-09-29T00:58:14.199Z,3.88
2023-09-29T01:00:43.158Z,3.42
2023-09-29T01:03:14.437Z,4.03
2023-09-29T01:05:53.162Z,3.63
2023-09-29T01:08:22.536Z,3.70
2023-09-29T01:10:50.711Z,4.07
2023-09-29T01:13:18.126Z,4.15
2023-09-29T01:15:45.852Z,3.85
2023-09-29T01:18:13.285Z,3.85
2023-09-29T01:20:42.588Z,3.97
2023-09-29T01:23:10.356Z,4.30
2023-09-29T01:25:39.013Z,4.05
2023-09-29T01:28:11.937Z,3.97
2023-09-29T01:30:39.514Z,4.05
2023-09-29T01:33:07.169Z,3.95
2023-09-29T01:35:34.528Z,4.25
2023-09-29T01:38:02.177Z,3.95
2023-09-29T01:40:30.478Z,3.88
2023-09-29T01:42:58.924Z,3.65
2023-09-29T01:45:27.502Z,3.92
2023-09-29T01:47:56.172Z,4.03
2023-09-29T01:50:25.213Z,3.92
2023-09-29T01:52:53.770Z,4.05
2023-09-29T01:55:22.562Z,3.90
2023-09-29T01:57:51.844Z,3.80
2023-09-29T02:00:27.110Z,4.10
2023-09-29T02:02:56.188Z,4.10
2023-09-29T02:05:24.810Z,3.72
2023-09-29T02:07:54.546Z,4.22
2023-09-29T02:10:23.627Z,3.40
2023-09-29T02:13:00.364Z,4.07
2023-09-29T02:15:31.174Z,4.30
2023-09-29T02:17:59.979Z,3.90
2023-09-29T02:20:31.193Z,4.10
2023-09-29T02:23:03.732Z,3.97
2023-09-29T02:25:34.177Z,4.22
2023-09-29T02:28:01.804Z,4.10
2023-09-29T02:30:30.261Z,4.32
2023-09-29T02:33:00.056Z,3.95
2023-09-29T02:35:27.200Z,3.97
2023-09-29T02:37:54.638Z,4.03
2023-09-29T02:40:23.934Z,3.70
2023-09-29T02:42:51.619Z,4.05
2023-09-29T02:45:19.940Z,3.95
2023-09-29T02:47:49.309Z,4.38
2023-09-29T02:50:17.403Z,4.03
2023-09-29T02:52:44.658Z,4.28
2023-09-29T02:55:14.351Z,4.60
2023-09-29T02:57:43.186Z,4.30
2023-09-29T03:00:23.326Z,4.28
2023-09-29T03:02:52.835Z,3.95
2023-09-29T03:05:23.959Z,4.30
2023-09-29T03:07:55.093Z,4.03
2023-09-29T03:10:27.340Z,4.30
2023-09-29T03:12:56.493Z,4.30
2023-09-29T03:15:25.124Z,4.43
2023-09-29T03:17:57.732Z,3.92
2023-09-29T03:20:27.438Z,4.47
2023-09-29T03:22:58.906Z,4.10
2023-09-29T03:25:26.026Z,4.80
2023-09-29T03:27:54.626Z,4.32
2023-09-29T03:30:23.324Z,4.75
2023-09-29T03:32:50.628Z,5.07
2023-09-29T03:35:17.691Z,5.00
2023-09-29T03:37:47.041Z,4.35
2023-09-29T03:40:15.015Z,5.00
2023-09-29T03:42:43.878Z,4.82
2023-09-29T03:45:14.008Z,4.82
2023-09-29T03:47:41.950Z,4.50
2023-09-29T03:50:14.261Z,4.82
2023-09-29T03:55:14.028Z,5.00
2023-09-29T03:57:44.530Z,4.20
2023-09-29T04:00:13.998Z,4.60
2023-09-29T04:02:45.050Z,4.70
2023-09-29T04:05:13.259Z,4.70
2023-09-29T04:07:41.742Z,4.97
2023-09-29T04:10:11.254Z,4.55
2023-09-29T04:12:46.316Z,4.60
2023-09-29T04:15:15.114Z,4.75
2023-09-29T04:17:42.534Z,4.65
2023-09-29T04:20:11.093Z,4.90
2023-09-29T04:22:38.619Z,4.53
2023-09-29T04:25:10.861Z,4.32
2023-09-29T04:27:38.833Z,4.20
2023-09-29T04:30:07.984Z,4.60
2023-09-29T04:32:35.441Z,4.78
2023-09-29T04:35:02.760Z,4.72
2023-09-29T04:37:30.569Z,4.97
2023-09-29T04:39:58.529Z,5.32
2023-09-29T04:42:26.069Z,4.97
2023-09-29T04:44:53.330Z,4.68
2023-09-29T04:47:21.422Z,4.70
2023-09-29T04:49:48.630Z,4.63
2023-09-29T04:52:15.881Z,4.57
2023-09-29T04:54:43.656Z,4.43
2023-09-29T04:57:10.938Z,5.05
2023-09-29T04:59:38.259Z,4.88
2023-09-29T05:02:07.139Z,4.72
2023-09-29T05:04:36.291Z,4.88
2023-09-29T05:07:03.334Z,4.60
2023-09-29T05:09:30.474Z,4.90
2023-09-29T05:11:57.486Z,4.65
2023-09-29T05:14:25.568Z,4.90
2023-09-29T05:16:54.911Z,4.47
2023-09-29T05:19:22.541Z,5.20
2023-09-29T05:21:49.562Z,4.55
2023-09-29T05:24:18.281Z,4.90
2023-09-29T05:26:47.143Z,4.50
2023-09-29T05:29:14.445Z,4.60
2023-09-29T05:31:41.879Z,4.25
2023-09-29T05:34:09.223Z,4.68
2023-09-29T05:36:37.846Z,4.20
2023-09-29T05:39:05.725Z,4.22
2023-09-29T05:41:33.127Z,5.00
2023-09-29T05:44:00.413Z,4.35
2023-09-29T05:46:28.243Z,4.85
2023-09-29T05:48:55.907Z,5.15
2023-09-29T05:51:23.085Z,6.70
2023-09-29T05:53:51.946Z,6.72
2023-09-29T05:56:20.163Z,5.82
2023-09-29T05:58:47.111Z,5.13
2023-09-29T06:01:17.889Z,4.82
2023-09-29T06:03:46.726Z,5.50
2023-09-29T06:06:14.075Z,5.70
2023-09-29T06:08:54.654Z,8.23
2023-09-29T06:11:23.367Z,8.35
2023-09-29T06:13:50.624Z,6.97
2023-09-29T06:16:17.888Z,6.55
2023-09-29T06:18:45.160Z,5.75
2023-09-29T06:21:12.652Z,6.68
2023-09-29T06:23:41.415Z,4.47
2023-09-29T06:26:09.248Z,6.65
2023-09-29T06:28:36.473Z,8.00
2023-09-29T06:31:04.179Z,8.57
2023-09-29T06:33:33.681Z,8.27
2023-09-29T06:36:02.144Z,6.93
2023-09-29T06:38:30.890Z,5.80
2023-09-29T06:41:01.227Z,5.43
2023-09-29T06:43:28.523Z,5.20
2023-09-29T06:46:01.832Z,4.22
2023-09-29T06:48:30.140Z,4.40
2023-09-29T06:51:02.060Z,3.95
2023-09-29T06:53:30.140Z,4.47
2023-09-29T06:55:59.516Z,3.90
2023-09-29T06:58:29.370Z,4.03
2023-09-29T07:01:01.011Z,4.22
2023-09-29T07:06:01.360Z,4.35
2023-09-29T07:08:29.532Z,4.38
2023-09-29T07:10:57.271Z,4.55
2023-09-29T07:13:25.474Z,4.50
2023-09-29T07:15:52.444Z,5.38
2023-09-29T07:18:20.028Z,5.00
2023-09-29T07:20:47.144Z,4.95
2023-09-29T07:23:14.940Z,4.63
2023-09-29T07:25:42.406Z,4.78
2023-09-29T07:28:14.857Z,4.35
2023-09-29T07:30:45.981Z,4.88
2023-09-29T07:33:13.916Z,4.38
2023-09-29T07:35:43.237Z,4.10
2023-09-29T07:38:10.318Z,4.40
2023-09-29T07:40:37.550Z,4.60
2023-09-29T07:43:08.261Z,3.95
2023-09-29T07:45:35.818Z,4.40
2023-09-29T07:48:02.997Z,4.03
2023-09-29T07:50:30.163Z,4.15
2023-09-29T07:52:57.366Z,4.05
2023-09-29T07:55:24.864Z,4.10
2023-09-29T07:57:52.944Z,3.97
2023-09-29T08:00:20.976Z,3.70
2023-09-29T08:02:48.216Z,4.50
2023-09-29T08:05:15.966Z,3.78
2023-09-29T08:07:42.978Z,4.35
2023-09-29T08:10:13.533Z,3.80
2023-09-29T08:12:40.725Z,3.80
2023-09-29T08:15:10.779Z,4.20
2023-09-29T08:17:39.316Z,4.10
2023-09-29T08:20:09.790Z,4.30
2023-09-29T08:22:41.199Z,4.38
2023-09-29T08:25:12.412Z,3.80
2023-09-29T08:27:40.162Z,3.80
2023-09-29T08:30:10.799Z,3.40
2023-09-29T08:32:45.114Z,3.78
2023-09-29T08:35:15.541Z,3.47
2023-09-29T08:37:45.020Z,3.47
2023-09-29T08:40:16.047Z,3.45
2023-09-29T08:42:47.471Z,4.13
2023-09-29T08:45:14.910Z,3.78
2023-09-29T08:47:42.604Z,3.40
2023-09-29T08:50:11.826Z,3.70
2023-09-29T08:52:42.302Z,4.00
2023-09-29T08:55:10.050Z,3.88
2023-09-29T08:57:38.226Z,3.80
2023-09-29T09:00:07.371Z,4.22
2023-09-29T09:02:34.970Z,3.92
2023-09-29T09:05:02.282Z,3.92
2023-09-29T09:07:29.568Z,6.07
2023-09-29T09:09:58.729Z,6.38
2023-09-29T09:12:38.172Z,4.43
2023-09-29T09:15:07.911Z,3.75
2023-09-29T09:17:37.186Z,3.75
2023-09-29T09:20:05.281Z,4.00
2023-09-29T09:22:46.268Z,3.80
2023-09-29T09:25:15.644Z,4.13
2023-09-29T09:27:45.303Z,4.00
2023-09-29T09:30:24.914Z,3.95
2023-09-29T09:32:52.879Z,3.72
2023-09-29T09:35:28.677Z,4.25
2023-09-29T09:37:57.285Z,3.67
2023-09-29T09:40:26.345Z,4.05
2023-09-29T09:42:55.492Z,3.90
2023-09-29T09:45:26.771Z,3.80
2023-09-29T09:48:01.363Z,4.03
2023-09-29T09:50:30.242Z,4.00
2023-09-29T09:53:01.294Z,4.32
2023-09-29T09:55:43.478Z,4.07
2023-09-29T09:58:16.770Z,4.50
2023-09-29T10:00:47.230Z,4.03
2023-09-29T10:03:18.389Z,4.32
2023-09-29T10:05:55.118Z,3.90
2023-09-29T10:08:33.099Z,4.20
2023-09-29T10:11:17.056Z,4.28
2023-09-29T10:13:53.497Z,3.50
2023-09-29T10:16:27.198Z,4.53
2023-09-29T10:19:01.872Z,4.22
2023-09-29T10:21:35.490Z,4.93
2023-09-29T10:24:08.098Z,4.53
2023-09-29T10:26:50.123Z,4.00
2023-09-29T10:29:25.966Z,4.75
2023-09-29T10:31:54.375Z,4.22
2023-09-29T10:34:25.887Z,4.35
2023-09-29T10:36:58.919Z,4.67
2023-09-29T10:39:27.660Z,4.68
2023-09-29T10:42:14.156Z,4.40
2023-09-29T10:44:56.815Z,4.68
2023-09-29T10:47:37.854Z,4.80
2023-09-29T10:50:06.875Z,5.10
2023-09-29T10:52:37.823Z,4.32
2023-09-29T10:55:06.129Z,4.75
2023-09-29T10:57:34.844Z,4.90
2023-09-29T11:00:03.160Z,5.22
2023-09-29T11:02:34.823Z,5.32
2023-09-29T11:05:06.342Z,5.15
2023-09-29T11:07:53.223Z,4.63
2023-09-29T11:10:21.002Z,4.55
2023-09-29T11:12:49.576Z,4.80
2023-09-29T11:15:18.693Z,4.60
2023-09-29T11:17:48.076Z,4.63
2023-09-29T11:20:29.174Z,4.40
2023-09-29T11:23:01.197Z,4.10
2023-09-29T11:25:28.538Z,4.18
2023-09-29T11:27:56.693Z,4.95
2023-09-29T11:30:26.546Z,4.40
2023-09-29T11:32:54.408Z,4.55
2023-09-29T11:35:23.080Z,4.30
2023-09-29T11:37:51.045Z,4.40
2023-09-29T11:40:18.512Z,4.70
2023-09-29T11:42:46.825Z,4.18
2023-09-29T11:45:14.141Z,3.83
2023-09-29T11:47:42.936Z,4.40
2023-09-29T11:50:11.833Z,4.10
2023-09-29T11:52:43.660Z,4.28
2023-09-29T11:55:15.181Z,4.15
2023-09-29T11:57:42.521Z,4.10
2023-09-29T12:00:12.086Z,3.90
2023-09-29T12:02:40.739Z,3.67
2023-09-29T12:05:10.731Z,3.70
2023-09-29T12:07:38.229Z,3.00
2023-09-29T12:10:05.892Z,2.88
2023-09-29T12:12:33.977Z,3.75
2023-09-29T12:15:01.366Z,3.90
2023-09-29T12:17:29.729Z,3.88
2023-09-29T12:19:57.417Z,3.60
2023-09-29T12:22:27.922Z,3.78
2023-09-29T12:24:55.233Z,3.50
2023-09-29T12:27:22.352Z,4.10
2023-09-29T12:29:51.510Z,3.80
2023-09-29T12:32:25.436Z,3.47
2023-09-29T12:34:52.971Z,3.45
2023-09-29T12:37:21.064Z,3.20
2023-09-29T12:39:50.991Z,3.53
2023-09-29T12:42:18.573Z,3.33
2023-09-29T12:44:48.232Z,3.22
2023-09-29T12:47:15.896Z,3.15
2023-09-29T12:49:44.517Z,2.85
2023-09-29T12:52:11.714Z,2.80
2023-09-29T12:54:40.828Z,3.00
2023-09-29T12:57:08.379Z,3.10
2023-09-29T12:59:39.010Z,3.08
2023-09-29T13:02:10.754Z,3.20
2023-09-29T13:04:37.893Z,3.10
2023-09-29T13:07:10.374Z,3.28
2023-09-29T13:09:38.788Z,2.63
2023-09-29T13:12:08.457Z,3.17
2023-09-29T13:14:42.505Z,2.92
2023-09-29T13:17:10.584Z,2.78
2023-09-29T13:19:37.835Z,2.80
2023-09-29T13:22:04.927Z,3.08
2023-09-29T13:24:32.281Z,2.35
2023-09-29T13:26:59.419Z,2.47
2023-09-29T13:29:27.126Z,2.20
2023-09-29T13:31:56.526Z,2.80
2023-09-29T13:34:23.898Z,3.30
2023-09-29T13:36:52.578Z,2.90
2023-09-29T13:39:19.687Z,2.72
2023-09-29T13:41:46.751Z,3.15
2023-09-29T13:44:14.120Z,3.90
2023-09-29T13:46:56.266Z,4.90
2023-09-29T13:49:23.707Z,6.57
2023-09-29T13:51:51.004Z,7.43
2023-09-29T13:54:18.337Z,8.95
2023-09-29T13:56:46.702Z,9.27
2023-09-29T13:59:13.752Z,8.60
2023-09-29T14:01:41.159Z,9.60
2023-09-29T14:04:09.274Z,9.80
2023-09-29T14:06:36.709Z,7.15
2023-09-29T14:09:16.138Z,9.25
2023-09-29T14:11:44.510Z,8.88
2023-09-29T14:14:11.964Z,9.80
2023-09-29T14:16:39.282Z,10.48
2023-09-29T14:19:06.365Z,9.75
2023-09-29T14:21:33.498Z,11.52
2023-09-29T14:24:01.034Z,12.57
2023-09-29T14:26:31.369Z,12.93
2023-09-29T14:28:59.139Z,11.25
2023-09-29T14:31:27.913Z,12.32
2023-09-29T14:33:55.398Z,12.60
2023-09-29T14:36:23.493Z,11.60
2023-09-29T14:38:50.900Z,12.48
2023-09-29T14:41:18.298Z,12.70
2023-09-29T14:43:46.884Z,12.27
2023-09-29T14:46:17.624Z,11.57
2023-09-29T14:48:45.170Z,11.40
2023-09-29T14:51:12.435Z,11.52
2023-09-29T14:53:40.198Z,11.73
2023-09-29T14:56:08.808Z,11.75
2023-09-29T14:58:36.272Z,10.73
2023-09-29T15:01:05.117Z,10.68
2023-09-29T15:03:33.130Z,10.02
2023-09-29T15:06:01.722Z,9.90
2023-09-29T15:08:35.810Z,10.85
2023-09-29T15:11:04.209Z,10.98
2023-09-29T15:13:31.524Z,11.05
2023-09-29T15:15:59.432Z,10.93
2023-09-29T15:18:26.652Z,10.77
2023-09-29T15:20:55.637Z,11.98
2023-09-29T15:23:23.109Z,12.73
2023-09-29T15:25:55.954Z,12.23
2023-09-29T15:28:23.185Z,13.43
2023-09-29T15:30:50.615Z,13.65
2023-09-29T15:33:17.817Z,14.13
2023-09-29T15:35:51.263Z,13.80
2023-09-29T15:38:19.176Z,12.77
2023-09-29T15:40:46.507Z,14.00
2023-09-29T15:43:14.360Z,12.93
2023-09-29T15:45:42.776Z,15.65
2023-09-29T15:48:11.398Z,14.70
2023-09-29T15:50:39.401Z,15.60
2023-09-29T15:53:06.486Z,16.48
2023-09-29T15:55:34.395Z,16.08
2023-09-29T15:58:03.058Z,17.08
2023-09-29T16:00:30.477Z,17.77
2023-09-29T16:02:58.197Z,17.58
2023-09-29T16:05:25.605Z,17.73
2023-09-29T16:07:52.842Z,15.45
2023-09-29T16:10:20.448Z,17.65
2023-09-29T16:12:48.062Z,16.92
2023-09-29T16:15:15.109Z,17.35
2023-09-29T16:17:44.461Z,17.27
2023-09-29T16:20:12.630Z,18.02
2023-09-29T16:22:39.905Z,16.83
2023-09-29T16:25:07.580Z,16.73
2023-09-29T16:27:34.698Z,17.00
2023-09-29T16:30:02.042Z,16.80
2023-09-29T16:32:32.296Z,16.83
2023-09-29T16:35:03.896Z,16.38
2023-09-29T16:37:35.197Z,17.00
2023-09-29T16:40:11.821Z,16.75
2023-09-29T16:42:46.921Z,16.73
2023-09-29T16:45:15.989Z,16.08
2023-09-29T16:47:45.291Z,16.58
2023-09-29T16:50:12.816Z,15.55
2023-09-29T16:52:40.248Z,16.83
2023-09-29T16:55:07.742Z,17.10
2023-09-29T16:57:36.064Z,17.48
2023-09-29T17:00:04.972Z,17.63
2023-09-29T17:02:32.675Z,20.73
2023-09-29T17:05:01.709Z,20.25
2023-09-29T17:07:31.063Z,20.35
2023-09-29T17:09:58.412Z,20.42
2023-09-29T17:12:25.837Z,20.95
2023-09-29T17:14:54.188Z,21.02
2023-09-29T17:17:22.286Z,21.50
2023-09-29T17:19:51.452Z,21.52
2023-09-29T17:22:19.126Z,23.40
2023-09-29T17:24:46.450Z,23.02
2023-09-29T17:27:14.614Z,21.77
2023-09-29T17:29:41.720Z,28.58
2023-09-29T17:32:10.564Z,26.88
2023-09-29T17:34:40.049Z,28.95
2023-09-29T17:37:07.213Z,26.92
2023-09-29T17:39:34.663Z,24.48
2023-09-29T17:42:02.488Z,22.88
2023-09-29T17:44:30.811Z,24.70
2023-09-29T17:46:58.182Z,22.48
2023-09-29T17:49:25.539Z,23.83
2023-09-29T17:51:52.680Z,24.05
2023-09-29T17:54:20.083Z,22.83
2023-09-29T17:56:47.865Z,24.77
2023-09-29T17:59:16.093Z,22.48
2023-09-29T18:01:43.209Z,23.67
2023-09-29T18:04:11.566Z,24.67
2023-09-29T18:06:38.832Z,23.67
2023-09-29T18:09:06.856Z,23.58
2023-09-29T18:11:36.223Z,22.40
2023-09-29T18:14:03.648Z,22.58
2023-09-29T18:16:31.297Z,23.92
2023-09-29T18:18:58.818Z,22.27
2023-09-29T18:21:28.586Z,21.60
2023-09-29T18:23:57.123Z,21.60
2023-09-29T18:26:24.160Z,21.17
2023-09-29T18:28:51.554Z,21.80
2023-09-29T18:31:19.951Z,21.52
2023-09-29T18:33:47.048Z,21.77
2023-09-29T18:36:14.582Z,21.35
2023-09-29T18:38:42.199Z,21.30
2023-09-29T18:41:11.711Z,21.88
2023-09-29T18:43:38.672Z,22.48
2023-09-29T18:46:05.582Z,23.85
2023-09-29T18:48:33.231Z,24.83
2023-09-29T18:51:05.723Z,22.90
2023-09-29T18:56:00.648Z,26.50
2023-09-29T18:58:28.426Z,22.38
2023-09-29T19:00:55.652Z,22.65
2023-09-29T19:03:23.341Z,20.27
2023-09-29T19:05:50.888Z,18.48
2023-09-29T19:08:20.074Z,19.85
2023-09-29T19:10:47.364Z,17.23
2023-09-29T19:13:14.884Z,18.88
2023-09-29T19:15:44.344Z,18.48
2023-09-29T19:18:11.792Z,18.33
2023-09-29T19:20:39.298Z,17.65
2023-09-29T19:23:06.665Z,18.08
2023-09-29T19:25:34.508Z,16.85
2023-09-29T19:28:02.197Z,15.27
2023-09-29T19:30:29.983Z,14.75
2023-09-29T19:32:58.267Z,15.23
2023-09-29T19:35:27.583Z,14.90
2023-09-29T19:37:55.667Z,14.65
2023-09-29T19:40:23.167Z,15.73
2023-09-29T19:42:50.223Z,14.93
2023-09-29T19:45:17.348Z,13.75
2023-09-29T19:47:44.957Z,12.88
2023-09-29T19:50:13.436Z,13.63
2023-09-29T19:52:42.003Z,13.65
2023-09-29T19:55:10.574Z,14.20
2023-09-29T19:57:38.359Z,13.32
2023-09-29T20:00:06.852Z,17.45
2023-09-29T20:02:39.727Z,17.27
2023-09-29T20:05:07.806Z,19.83
2023-09-29T20:07:36.310Z,18.67
2023-09-29T20:10:03.659Z,17.17
2023-09-29T20:12:30.730Z,15.30
2023-09-29T20:14:57.773Z,13.90
2023-09-29T20:17:25.817Z,12.80
2023-09-29T20:19:53.141Z,12.18
2023-09-29T20:22:21.674Z,10.70
2023-09-29T20:24:49.428Z,10.85
2023-09-29T20:27:17.181Z,10.65
2023-09-29T20:29:46.123Z,10.00
2023-09-29T20:32:13.865Z,7.82
2023-09-29T20:34:41.229Z,8.07
2023-09-29T20:37:09.045Z,7.93
2023-09-29T20:39:36.318Z,8.40
2023-09-29T20:42:04.660Z,12.07
2023-09-29T20:44:34.490Z,9.55
2023-09-29T20:47:01.496Z,9.55
2023-09-29T20:49:29.294Z,9.32
2023-09-29T20:51:56.387Z,7.82
2023-09-29T20:54:24.221Z,8.70
2023-09-29T20:56:51.223Z,7.85
2023-09-29T20:59:18.523Z,7.57
2023-09-29T21:01:45.810Z,6.97
2023-09-29T21:04:14.998Z,6.25
2023-09-29T21:06:44.348Z,6.80
2023-09-29T21:09:11.517Z,7.20
2023-09-29T21:11:38.769Z,6.25
2023-09-29T21:14:08.048Z,5.70
2023-09-29T21:16:36.031Z,6.78
2023-09-29T21:19:03.782Z,6.43
2023-09-29T21:21:30.925Z,6.60
2023-09-29T21:23:59.724Z,6.68
2023-09-29T21:26:27.313Z,6.47
2023-09-29T21:28:54.316Z,7.05
2023-09-29T21:31:28.100Z,5.90
2023-09-29T21:33:58.754Z,6.45
2023-09-29T21:36:26.516Z,6.15
2023-09-29T21:38:54.126Z,6.13
2023-09-29T21:41:21.293Z,5.80
2023-09-29T21:43:48.990Z,5.55
2023-09-29T21:46:15.994Z,5.38
2023-09-29T21:48:43.338Z,5.47
2023-09-29T21:51:10.801Z,5.18
2023-09-29T21:53:38.115Z,4.88
2023-09-29T21:56:06.317Z,5.72
2023-09-29T21:58:33.330Z,5.18
2023-09-29T22:01:00.665Z,5.50
2023-09-29T22:03:27.786Z,5.15
2023-09-29T22:05:57.500Z,5.43
2023-09-29T22:08:25.299Z,5.03
2023-09-29T22:10:52.888Z,5.20
2023-09-29T22:13:24.026Z,5.47
2023-09-29T22:15:52.767Z,5.35
2023-09-29T22:18:20.469Z,5.72
2023-09-29T22:20:48.130Z,5.22
2023-09-29T22:23:18.206Z,5.97
2023-09-29T22:25:45.771Z,6.40
2023-09-29T22:28:12.986Z,5.50
2023-09-29T22:30:40.370Z,5.10
2023-09-29T22:33:08.305Z,5.90
2023-09-29T22:35:37.478Z,6.10
2023-09-29T22:38:08.793Z,6.63
2023-09-29T22:40:35.818Z,6.82
2023-09-29T22:43:03.608Z,5.80
2023-09-29T22:45:30.997Z,6.28
2023-09-29T22:47:58.950Z,6.68
2023-09-29T22:50:27.966Z,6.10
2023-09-29T22:52:55.076Z,5.97
2023-09-29T22:55:24.189Z,5.57
2023-09-29T22:57:51.318Z,6.05
2023-09-29T23:00:18.999Z,5.55
2023-09-29T23:02:46.523Z,5.90
2023-09-29T23:05:14.139Z,5.38
2023-09-29T23:07:42.087Z,5.35
2023-09-29T23:10:12.328Z,5.75
2023-09-29T23:12:41.842Z,4.68
2023-09-29T23:15:10.316Z,4.95
2023-09-29T23:17:37.978Z,5.75
2023-09-29T23:20:11.864Z,5.70
2023-09-29T23:22:40.154Z,5.05
2023-09-29T23:25:09.233Z,5.05
2023-09-29T23:27:36.584Z,5.13
2023-09-29T23:30:05.647Z,4.97
2023-09-29T23:32:33.593Z,5.15
2023-09-29T23:35:00.981Z,6.40
2023-09-29T23:37:28.990Z,5.90
2023-09-29T23:39:56.391Z,5.32
2023-09-29T23:42:23.778Z,5.28
2023-09-29T23:44:51.055Z,4.97
2023-09-29T23:47:18.362Z,5.30
2023-09-29T23:49:45.691Z,5.05
2023-09-29T23:52:12.829Z,4.75
2023-09-29T23:54:39.983Z,5.15
2023-09-29T23:57:07.022Z,4.95
2023-09-29T23:59:34.329Z,5.35
